Time;durP1;ratioP1;P1;durP2;ratioP2;P2;SDS_P1;SDS_P2;PMS_P1;PMS_P2;Temp;Humidity;BMP_temperature;BMP_pressure;BME280_temperature;BME280_humidity;BME280_pressure;Samples;Min_cycle;Max_cycle;Signal;HPM_P1;HPM_P2
2021/04/09 00:00:22;;;;;;;16.55;8.82;;;6.40;90.80;;;;;;5039444;28;20034;-79
2021/04/09 00:02:48;;;;;;;17.42;9.45;;;6.40;90.90;;;;;;5044503;28;20048;-79
2021/04/09 00:05:18;;;;;;;18.42;8.77;;;6.40;90.60;;;;;;5058462;28;20048;-79
2021/04/09 00:07:45;;;;;;;15.73;9.57;;;6.50;90.80;;;;;;5033230;28;20076;-79
2021/04/09 00:10:12;;;;;;;16.92;8.40;;;6.50;90.30;;;;;;5042263;28;20384;-79
2021/04/09 00:12:39;;;;;;;20.60;8.52;;;6.50;90.40;;;;;;5008454;28;20094;-78
2021/04/09 00:15:08;;;;;;;20.02;8.13;;;6.50;90.40;;;;;;5037499;28;20040;-79
2021/04/09 00:17:34;;;;;;;16.35;8.13;;;6.50;90.20;;;;;;5028790;28;20051;-78
2021/04/09 00:20:00;;;;;;;14.95;8.77;;;6.60;90.20;;;;;;5029500;28;20029;-79
2021/04/09 00:22:26;;;;;;;15.48;8.13;;;6.60;90.10;;;;;;5038596;28;20066;-79
2021/04/09 00:24:51;;;;;;;14.38;7.47;;;6.60;90.30;;;;;;5031246;28;20049;-79
2021/04/09 00:27:17;;;;;;;15.10;7.78;;;6.60;90.10;;;;;;5014257;28;20036;-78
2021/04/09 00:29:43;;;;;;;13.32;7.60;;;6.60;90.00;;;;;;5062205;28;20037;-79
2021/04/09 00:32:09;;;;;;;15.00;8.38;;;6.60;89.70;;;;;;5029564;28;20049;-78
2021/04/09 00:34:35;;;;;;;14.80;8.20;;;6.60;90.00;;;;;;5011105;28;20056;-79
2021/04/09 00:37:01;;;;;;;15.68;8.27;;;6.70;90.00;;;;;;4994855;28;20064;-78
2021/04/09 00:39:26;;;;;;;14.88;8.13;;;6.70;90.00;;;;;;5026922;28;20841;-79
2021/04/09 00:41:52;;;;;;;16.02;8.88;;;6.70;90.00;;;;;;5032760;28;20049;-78
2021/04/09 00:44:19;;;;;;;22.98;9.25;;;6.70;90.00;;;;;;5040546;28;20140;-78
2021/04/09 00:46:44;;;;;;;16.35;9.00;;;6.70;89.80;;;;;;5030881;28;20033;-79
2021/04/09 00:49:10;;;;;;;20.35;9.48;;;6.70;89.90;;;;;;5062283;28;20037;-78
2021/04/09 00:51:37;;;;;;;18.75;9.35;;;6.70;89.80;;;;;;5028995;28;20051;-79
2021/04/09 00:54:07;;;;;;;14.88;9.45;;;6.70;89.90;;;;;;5046364;28;20037;-79
2021/04/09 00:56:35;;;;;;;17.77;9.93;;;6.70;90.00;;;;;;5064515;28;20047;-79
2021/04/09 00:59:01;;;;;;;16.80;10.18;;;6.70;89.90;;;;;;5030124;28;20496;-78
2021/04/09 01:01:27;;;;;;;15.95;10.18;;;6.70;90.00;;;;;;5059036;28;20041;-79
2021/04/09 01:03:54;;;;;;;14.85;9.07;;;6.60;90.10;;;;;;5046430;28;20037;-78
2021/04/09 01:06:21;;;;;;;20.13;9.60;;;6.70;90.00;;;;;;5012236;28;20065;-79
2021/04/09 01:08:48;;;;;;;20.30;10.40;;;6.70;90.10;;;;;;5045309;28;20037;-79
2021/04/09 01:11:15;;;;;;;18.70;10.02;;;6.70;90.10;;;;;;5014417;28;20038;-79
2021/04/09 01:13:43;;;;;;;18.77;9.45;;;6.60;90.00;;;;;;5059816;28;20494;-79
2021/04/09 01:16:30;;;;;;;15.75;10.20;;;6.60;90.10;;;;;;5042761;28;20128;-78
2021/04/09 01:19:33;;;;;;;16.08;9.68;;;6.70;90.20;;;;;;5058602;28;20037;-78
2021/04/09 01:22:02;;;;;;;18.60;10.32;;;6.60;90.30;;;;;;5026758;28;20482;-79
2021/04/09 01:25:06;;;;;;;18.08;9.48;;;6.60;90.40;;;;;;5026032;28;20117;-79
2021/04/09 01:27:37;;;;;;;19.52;9.80;;;6.60;90.30;;;;;;5027782;28;21009;-79
2021/04/09 01:30:28;;;;;;;18.93;9.57;;;6.60;90.40;;;;;;5026212;28;20033;-78
2021/04/09 01:32:55;;;;;;;14.80;10.05;;;6.60;90.20;;;;;;5026089;28;20323;-79
2021/04/09 01:35:23;;;;;;;17.88;9.18;;;6.70;90.40;;;;;;5033584;28;20037;-78
2021/04/09 01:38:02;;;;;;;17.10;9.90;;;6.60;90.30;;;;;;5023737;28;20053;-78
2021/04/09 01:40:35;;;;;;;18.80;9.82;;;6.60;90.30;;;;;;5012059;28;20049;-79
2021/04/09 01:43:06;;;;;;;16.95;9.88;;;6.70;90.70;;;;;;5022670;28;20041;-79
2021/04/09 01:45:32;;;;;;;15.23;9.10;;;6.70;90.50;;;;;;5026317;28;20034;-78
2021/04/09 01:47:59;;;;;;;24.58;10.75;;;6.60;90.50;;;;;;5043386;28;20041;-78
2021/04/09 01:50:27;;;;;;;17.33;10.25;;;6.60;90.30;;;;;;5050072;28;20042;-78
2021/04/09 01:52:54;;;;;;;18.08;10.15;;;6.60;90.60;;;;;;5024945;28;20044;-78
2021/04/09 01:55:22;;;;;;;16.67;9.77;;;6.60;90.60;;;;;;5052103;28;20401;-78
2021/04/09 01:57:50;;;;;;;17.45;10.07;;;6.60;90.50;;;;;;5012675;28;20449;-78
2021/04/09 02:00:19;;;;;;;16.83;10.20;;;6.60;90.60;;;;;;5012820;28;20078;-78
2021/04/09 02:02:48;;;;;;;24.15;11.05;;;6.60;90.50;;;;;;5027918;28;20034;-78
2021/04/09 02:05:33;;;;;;;19.10;11.75;;;6.60;90.60;;;;;;5030015;28;20045;-78
2021/04/09 02:08:02;;;;;;;19.63;11.32;;;6.50;90.60;;;;;;5040764;28;20068;-79
2021/04/09 02:10:28;;;;;;;22.35;11.45;;;6.50;90.80;;;;;;5022991;28;20053;-78
2021/04/09 02:12:54;;;;;;;17.60;11.30;;;6.50;91.10;;;;;;5058407;28;20124;-78
2021/04/09 02:15:25;;;;;;;19.55;11.77;;;6.50;91.00;;;;;;5026070;28;20394;-78
2021/04/09 02:17:52;;;;;;;20.40;11.88;;;6.50;91.00;;;;;;5024849;28;20037;-78
2021/04/09 02:20:20;;;;;;;22.60;11.80;;;6.40;90.90;;;;;;5030262;28;20454;-79
2021/04/09 02:22:47;;;;;;;27.38;12.73;;;6.40;91.20;;;;;;5029184;28;20056;-78
2021/04/09 02:25:15;;;;;;;17.95;11.98;;;6.50;91.30;;;;;;5045641;28;20041;-78
2021/04/09 02:27:44;;;;;;;20.90;12.18;;;6.40;91.30;;;;;;5062441;28;20041;-78
2021/04/09 02:30:11;;;;;;;20.48;12.35;;;6.40;91.30;;;;;;5044976;28;21415;-79
2021/04/09 02:32:37;;;;;;;22.48;12.98;;;6.40;91.20;;;;;;5030830;28;20073;-78
2021/04/09 02:35:08;;;;;;;25.05;12.50;;;6.40;91.30;;;;;;5026176;28;20068;-78
2021/04/09 02:37:40;;;;;;;17.55;12.23;;;6.40;91.30;;;;;;5063543;28;20033;-78
2021/04/09 02:40:12;;;;;;;20.27;12.07;;;6.40;91.30;;;;;;5028023;28;20029;-78
2021/04/09 02:42:38;;;;;;;21.38;11.45;;;6.40;91.50;;;;;;5026556;28;20144;-78
2021/04/09 02:45:07;;;;;;;21.60;11.65;;;6.40;91.40;;;;;;5013953;28;20037;-78
2021/04/09 02:47:36;;;;;;;22.00;12.93;;;6.40;91.40;;;;;;5041574;28;20132;-78
2021/04/09 02:50:15;;;;;;;23.35;11.13;;;6.40;91.40;;;;;;5020498;28;20037;-77
2021/04/09 02:52:49;;;;;;;17.85;11.15;;;6.40;91.40;;;;;;5029134;28;20072;-78
2021/04/09 02:55:18;;;;;;;15.02;10.43;;;6.40;91.30;;;;;;5029136;28;20091;-79
2021/04/09 02:57:47;;;;;;;25.40;11.57;;;6.30;91.40;;;;;;5045739;28;20037;-78
2021/04/09 03:00:14;;;;;;;16.70;10.18;;;6.40;91.40;;;;;;5004495;28;20072;-78
2021/04/09 03:02:40;;;;;;;23.55;11.00;;;6.40;91.30;;;;;;5029076;28;20037;-78
2021/04/09 03:05:08;;;;;;;22.45;10.85;;;6.40;91.40;;;;;;5040425;28;20057;-79
2021/04/09 03:07:37;;;;;;;22.02;11.13;;;6.50;91.20;;;;;;5045580;28;20099;-78
2021/04/09 03:10:15;;;;;;;21.52;11.20;;;6.50;91.20;;;;;;5044842;28;20045;-78
2021/04/09 03:12:42;;;;;;;28.58;11.13;;;6.50;91.10;;;;;;5046881;28;20119;-78
2021/04/09 03:15:13;;;;;;;21.98;10.80;;;6.50;91.20;;;;;;5031972;28;20033;-78
2021/04/09 03:18:01;;;;;;;23.77;10.90;;;6.40;91.30;;;;;;5041283;28;20037;-78
2021/04/09 03:20:27;;;;;;;19.75;11.50;;;6.40;91.40;;;;;;5044924;28;20480;-78
2021/04/09 03:22:53;;;;;;;18.25;10.85;;;6.40;91.40;;;;;;5032116;28;20037;-79
2021/04/09 03:25:19;;;;;;;21.65;11.70;;;6.40;91.90;;;;;;5040764;28;20041;-79
2021/04/09 03:27:45;;;;;;;20.63;11.80;;;6.40;91.70;;;;;;5048537;28;20041;-78
2021/04/09 03:30:13;;;;;;;18.40;11.32;;;6.40;91.60;;;;;;5046086;28;20059;-78
2021/04/09 03:32:40;;;;;;;22.55;11.80;;;6.40;91.60;;;;;;5064988;28;20056;-78
2021/04/09 03:35:06;;;;;;;22.45;11.07;;;6.40;91.60;;;;;;5015574;28;20033;-78
2021/04/09 03:37:32;;;;;;;23.30;11.38;;;6.40;91.80;;;;;;5015256;28;20045;-78
2021/04/09 03:39:58;;;;;;;23.95;11.25;;;6.30;91.70;;;;;;5014440;28;20037;-78
2021/04/09 03:42:24;;;;;;;23.33;10.82;;;6.40;92.00;;;;;;5030707;28;20041;-78
2021/04/09 03:44:50;;;;;;;24.02;12.38;;;6.40;91.90;;;;;;5030596;28;20081;-78
2021/04/09 03:47:16;;;;;;;24.02;11.15;;;6.40;91.90;;;;;;5041500;28;20064;-78
2021/04/09 03:49:42;;;;;;;21.55;10.32;;;6.40;92.00;;;;;;5048118;28;20040;-78
2021/04/09 03:52:08;;;;;;;22.25;11.90;;;6.40;92.10;;;;;;5047067;28;20040;-79
2021/04/09 03:54:33;;;;;;;19.58;10.45;;;6.40;92.30;;;;;;5046707;28;20041;-78
2021/04/09 03:56:59;;;;;;;19.80;10.60;;;6.50;92.20;;;;;;5048293;28;20045;-79
2021/04/09 03:59:25;;;;;;;19.13;10.43;;;6.40;92.30;;;;;;5045883;28;20029;-79
2021/04/09 04:01:51;;;;;;;21.45;10.93;;;6.40;92.30;;;;;;5037972;28;20049;-78
2021/04/09 04:04:17;;;;;;;23.95;10.63;;;6.40;92.50;;;;;;5048931;28;20045;-79
2021/04/09 04:06:43;;;;;;;23.42;10.73;;;6.40;92.60;;;;;;5048707;28;20075;-78
2021/04/09 04:09:09;;;;;;;18.65;10.27;;;6.40;92.60;;;;;;5047594;28;20041;-78
2021/04/09 04:11:34;;;;;;;21.98;10.07;;;6.40;92.80;;;;;;5018779;28;20049;-78
2021/04/09 04:14:00;;;;;;;26.13;10.68;;;6.30;93.00;;;;;;5047101;28;20033;-78
2021/04/09 04:16:26;;;;;;;27.50;9.98;;;6.40;93.00;;;;;;5047050;28;20796;-78
2021/04/09 04:18:52;;;;;;;19.88;9.63;;;6.30;93.10;;;;;;5030949;28;20127;-78
2021/04/09 04:21:18;;;;;;;24.83;10.40;;;6.30;93.20;;;;;;5026924;28;20512;-79
2021/04/09 04:23:44;;;;;;;25.48;10.07;;;6.30;93.40;;;;;;5047887;28;20040;-79
2021/04/09 04:26:10;;;;;;;24.70;9.90;;;6.30;93.40;;;;;;5030953;28;20068;-79
2021/04/09 04:28:36;;;;;;;28.45;9.32;;;6.20;93.50;;;;;;5063633;28;20060;-79
2021/04/09 04:31:03;;;;;;;22.52;8.45;;;6.20;93.70;;;;;;5045113;28;20055;-78
2021/04/09 04:33:29;;;;;;;24.30;7.53;;;6.10;93.70;;;;;;5047128;28;20124;-79
2021/04/09 04:35:55;;;;;;;24.48;8.00;;;6.10;93.90;;;;;;5013728;28;20112;-78
2021/04/09 04:38:21;;;;;;;25.17;8.15;;;6.20;94.00;;;;;;5049123;28;20048;-79
2021/04/09 04:40:48;;;;;;;22.90;7.50;;;6.10;94.20;;;;;;5045007;28;20049;-78
2021/04/09 04:43:14;;;;;;;23.13;7.60;;;6.00;94.20;;;;;;5063950;28;20542;-78
2021/04/09 04:45:41;;;;;;;26.50;7.65;;;6.10;94.40;;;;;;5047450;28;20037;-79
2021/04/09 04:48:08;;;;;;;26.42;7.63;;;6.00;94.40;;;;;;5048615;28;20039;-78
2021/04/09 04:50:34;;;;;;;20.52;7.22;;;6.10;94.50;;;;;;5041241;28;20483;-78
2021/04/09 04:53:01;;;;;;;28.88;8.18;;;6.00;94.50;;;;;;5046684;28;20037;-78
2021/04/09 04:55:27;;;;;;;26.95;7.03;;;6.00;94.50;;;;;;5038383;28;20038;-77
2021/04/09 04:57:52;;;;;;;25.48;7.90;;;6.00;94.60;;;;;;5043687;28;20123;-78
2021/04/09 05:00:19;;;;;;;22.88;7.28;;;6.00;94.70;;;;;;5045775;28;20124;-78
2021/04/09 05:02:45;;;;;;;20.85;6.60;;;6.00;94.80;;;;;;5047117;28;20045;-78
2021/04/09 05:05:12;;;;;;;31.27;7.43;;;5.90;94.80;;;;;;5044084;28;20067;-78
2021/04/09 05:07:37;;;;;;;21.70;6.07;;;5.90;94.90;;;;;;5047123;28;20528;-78
2021/04/09 05:10:07;;;;;;;21.33;6.30;;;5.90;94.90;;;;;;5042630;28;20041;-77
2021/04/09 05:12:34;;;;;;;23.15;6.35;;;5.90;95.00;;;;;;5060955;28;20068;-78
2021/04/09 05:15:00;;;;;;;24.98;7.20;;;5.90;95.10;;;;;;5046621;28;20033;-77
2021/04/09 05:17:26;;;;;;;20.52;6.35;;;5.90;95.10;;;;;;5052838;28;20382;-77
2021/04/09 05:19:52;;;;;;;26.48;7.38;;;6.00;95.10;;;;;;5046460;28;20548;-77
2021/04/09 05:22:18;;;;;;;21.90;6.80;;;6.00;95.10;;;;;;5042399;28;20068;-78
2021/04/09 05:24:46;;;;;;;23.73;6.00;;;5.90;95.00;;;;;;5030746;28;20061;-77
2021/04/09 05:27:12;;;;;;;23.33;5.97;;;6.00;95.10;;;;;;5044242;28;20443;-78
2021/04/09 05:29:39;;;;;;;21.75;7.63;;;6.00;95.40;;;;;;5067995;28;20032;-78
2021/04/09 05:32:09;;;;;;;23.00;6.72;;;6.00;95.10;;;;;;5032572;28;20049;-78
2021/04/09 05:34:35;;;;;;;19.42;7.72;;;6.00;95.20;;;;;;5033979;28;20492;-79
2021/04/09 05:37:01;;;;;;;23.10;6.45;;;6.00;95.20;;;;;;5033330;28;20075;-78
2021/04/09 05:39:27;;;;;;;23.73;6.32;;;6.00;95.30;;;;;;5032954;28;20098;-78
2021/04/09 05:41:53;;;;;;;19.75;6.30;;;6.10;95.30;;;;;;5047369;28;20060;-78
2021/04/09 05:44:19;;;;;;;25.77;7.05;;;6.10;95.30;;;;;;5032756;28;20112;-78
2021/04/09 05:46:45;;;;;;;29.92;6.60;;;6.20;95.40;;;;;;5050933;28;20131;-78
2021/04/09 05:49:11;;;;;;;20.23;6.18;;;6.20;95.30;;;;;;5049748;28;20025;-79
2021/04/09 05:51:37;;;;;;;25.45;6.47;;;6.30;95.40;;;;;;5047509;28;20095;-78
2021/04/09 05:54:03;;;;;;;28.77;7.70;;;6.30;95.50;;;;;;5050064;28;20037;-78
2021/04/09 05:56:29;;;;;;;24.70;6.20;;;6.40;95.30;;;;;;5050089;28;20039;-78
2021/04/09 05:58:55;;;;;;;25.98;6.50;;;6.40;95.20;;;;;;5050452;28;20120;-78
2021/04/09 06:01:21;;;;;;;20.75;6.05;;;6.40;95.20;;;;;;5048933;28;20151;-78
2021/04/09 06:03:48;;;;;;;25.73;7.85;;;6.40;95.10;;;;;;5048839;28;20486;-78
2021/04/09 06:06:14;;;;;;;28.70;6.95;;;6.50;95.20;;;;;;5013813;28;20069;-78
2021/04/09 06:08:40;;;;;;;30.80;7.05;;;6.50;95.20;;;;;;5038351;28;20051;-78
2021/04/09 06:11:07;;;;;;;26.95;6.80;;;6.50;95.20;;;;;;5045824;28;20417;-78
2021/04/09 06:13:33;;;;;;;30.80;7.60;;;6.50;95.10;;;;;;5030621;28;20555;-78
2021/04/09 06:15:59;;;;;;;25.05;6.97;;;6.60;95.20;;;;;;5031209;28;20065;-78
2021/04/09 06:18:25;;;;;;;25.35;6.93;;;6.60;95.30;;;;;;5065033;28;20111;-79
2021/04/09 06:20:51;;;;;;;24.42;6.85;;;6.70;95.20;;;;;;5049439;28;20094;-78
2021/04/09 06:23:16;;;;;;;19.98;5.72;;;6.70;95.10;;;;;;5064517;28;20454;-78
2021/04/09 06:25:42;;;;;;;25.92;6.07;;;6.70;95.10;;;;;;5066636;28;20443;-79
2021/04/09 06:28:09;;;;;;;25.33;6.15;;;6.80;95.00;;;;;;5049899;28;20045;-79
2021/04/09 06:30:35;;;;;;;17.65;6.32;;;6.80;95.10;;;;;;5050330;28;20044;-79
2021/04/09 06:33:01;;;;;;;19.80;6.53;;;6.90;95.00;;;;;;5048443;28;20041;-79
2021/04/09 06:35:27;;;;;;;28.98;6.90;;;6.90;95.00;;;;;;5047196;28;20041;-79
2021/04/09 06:37:53;;;;;;;24.27;6.35;;;6.90;94.90;;;;;;5049825;28;20392;-77
2021/04/09 06:40:21;;;;;;;25.67;6.18;;;7.00;94.90;;;;;;5042335;28;20033;-77
2021/04/09 06:42:52;;;;;;;25.05;7.25;;;7.00;94.80;;;;;;5030469;28;20112;-77
2021/04/09 06:45:18;;;;;;;22.13;6.20;;;7.10;94.80;;;;;;5019115;28;20037;-76
2021/04/09 06:47:44;;;;;;;24.13;5.82;;;7.10;94.70;;;;;;5033163;28;20040;-77
2021/04/09 06:50:10;;;;;;;24.02;5.75;;;7.20;94.50;;;;;;5032384;28;20093;-77
2021/04/09 06:52:36;;;;;;;26.92;7.35;;;7.20;94.50;;;;;;5048942;28;20037;-77
2021/04/09 06:55:03;;;;;;;19.98;6.22;;;7.20;94.50;;;;;;5054524;28;20041;-78
2021/04/09 06:57:33;;;;;;;28.52;7.10;;;7.30;94.40;;;;;;5054189;28;20044;-78
2021/04/09 07:00:11;;;;;;;25.48;5.70;;;7.30;94.50;;;;;;5038826;28;20041;-78
2021/04/09 07:02:37;;;;;;;21.73;5.90;;;7.30;94.40;;;;;;5028294;28;20092;-78
2021/04/09 07:05:04;;;;;;;21.75;5.47;;;7.40;94.30;;;;;;5053942;28;20041;-77
2021/04/09 07:07:30;;;;;;;25.20;6.57;;;7.40;94.30;;;;;;5047135;28;20056;-78
2021/04/09 07:09:56;;;;;;;16.88;5.20;;;7.40;94.20;;;;;;5057641;28;20134;-78
2021/04/09 07:12:31;;;;;;;23.45;6.03;;;7.40;94.30;;;;;;5064136;28;20036;-78
2021/04/09 07:15:04;;;;;;;23.00;6.53;;;7.40;94.20;;;;;;5030098;28;20469;-78
2021/04/09 07:17:37;;;;;;;22.30;5.13;;;7.50;94.20;;;;;;5027368;28;20048;-79
2021/04/09 07:20:12;;;;;;;22.17;6.70;;;7.50;94.10;;;;;;5011592;28;20486;-79
2021/04/09 07:22:38;;;;;;;21.50;4.72;;;7.50;93.90;;;;;;5024189;28;20060;-79
2021/04/09 07:25:08;;;;;;;21.13;5.50;;;7.60;93.90;;;;;;5024167;28;20040;-79
2021/04/09 07:27:34;;;;;;;16.10;3.97;;;7.60;93.70;;;;;;5048156;28;20045;-79
2021/04/09 07:30:00;;;;;;;12.27;4.18;;;7.60;93.50;;;;;;5046433;28;20036;-79
2021/04/09 07:32:27;;;;;;;22.60;5.20;;;7.70;93.40;;;;;;5029361;28;20484;-80
2021/04/09 07:34:59;;;;;;;25.05;5.10;;;7.70;93.40;;;;;;5040919;28;20588;-79
2021/04/09 07:37:28;;;;;;;19.98;4.93;;;7.70;93.20;;;;;;5043274;28;20037;-79
2021/04/09 07:40:04;;;;;;;27.73;5.00;;;7.80;93.20;;;;;;5029784;28;20037;-79
2021/04/09 07:42:36;;;;;;;12.98;4.25;;;7.80;93.10;;;;;;5014956;28;20037;-78
2021/04/09 07:45:13;;;;;;;18.33;5.53;;;7.90;93.10;;;;;;5040426;28;20037;-79
2021/04/09 07:47:52;;;;;;;11.98;4.40;;;7.90;93.00;;;;;;5026696;28;20045;-79
2021/04/09 07:50:18;;;;;;;17.85;4.57;;;7.90;92.70;;;;;;5043120;28;20052;-79
2021/04/09 07:52:46;;;;;;;17.80;4.47;;;8.00;92.70;;;;;;5045923;28;20036;-79
2021/04/09 07:55:20;;;;;;;18.92;4.50;;;8.00;92.60;;;;;;5027863;28;20398;-79
2021/04/09 07:57:46;;;;;;;21.80;6.22;;;8.10;92.50;;;;;;5042831;28;20033;-79
2021/04/09 08:00:23;;;;;;;16.55;4.35;;;8.10;92.50;;;;;;5044599;28;20067;-79
2021/04/09 08:02:51;;;;;;;21.90;4.50;;;8.10;92.40;;;;;;5025818;28;20036;-79
2021/04/09 08:05:21;;;;;;;20.65;4.80;;;8.10;92.40;;;;;;5059338;28;20699;-79
2021/04/09 08:07:47;;;;;;;16.45;6.28;;;8.10;92.40;;;;;;5041394;28;20076;-79
2021/04/09 08:10:15;;;;;;;17.15;4.45;;;8.10;92.30;;;;;;5041081;28;20130;-79
2021/04/09 08:12:42;;;;;;;20.98;4.60;;;8.10;92.20;;;;;;5028282;28;20098;-79
2021/04/09 08:15:30;;;;;;;16.38;4.63;;;8.00;92.30;;;;;;5043948;28;20037;-79
2021/04/09 08:18:00;;;;;;;19.13;4.63;;;8.00;92.10;;;;;;5043128;28;20040;-79
2021/04/09 08:20:28;;;;;;;19.67;4.35;;;7.90;92.30;;;;;;5045149;28;20083;-79
2021/04/09 08:22:59;;;;;;;17.95;4.68;;;7.90;92.40;;;;;;5045116;28;20048;-79
2021/04/09 08:25:26;;;;;;;15.95;4.13;;;7.90;92.10;;;;;;5044238;28;20033;-77
2021/04/09 08:27:52;;;;;;;19.85;5.40;;;7.90;92.20;;;;;;5028122;28;20538;-76
2021/04/09 08:30:19;;;;;;;17.13;4.13;;;7.80;92.40;;;;;;5028574;28;20067;-77
2021/04/09 08:32:45;;;;;;;20.05;4.25;;;7.80;92.50;;;;;;5035912;28;20041;-76
2021/04/09 08:35:12;;;;;;;17.30;4.38;;;7.80;92.50;;;;;;5043779;28;20565;-76
2021/04/09 08:37:40;;;;;;;14.38;4.50;;;7.80;92.50;;;;;;5026849;28;20075;-76
2021/04/09 08:40:06;;;;;;;15.77;4.05;;;7.80;92.50;;;;;;5044207;28;20307;-77
2021/04/09 08:42:34;;;;;;;17.30;4.38;;;7.80;92.60;;;;;;5027889;28;20390;-77
2021/04/09 08:45:04;;;;;;;16.33;4.65;;;7.80;92.50;;;;;;5041570;28;20045;-77
2021/04/09 08:47:31;;;;;;;23.20;5.70;;;7.90;92.60;;;;;;5011714;28;20504;-77
2021/04/09 08:49:58;;;;;;;14.23;3.30;;;8.10;92.60;;;;;;5037213;28;20072;-77
2021/04/09 08:52:25;;;;;;;19.15;3.97;;;8.20;92.60;;;;;;5022350;28;20037;-76
2021/04/09 08:54:53;;;;;;;11.00;3.72;;;8.30;92.10;;;;;;5027628;28;20043;-77
2021/04/09 08:57:30;;;;;;;18.75;4.03;;;8.40;92.20;;;;;;5027522;28;20044;-76
2021/04/09 09:00:20;;;;;;;16.67;4.35;;;8.40;91.60;;;;;;5045976;28;20146;-77
2021/04/09 09:02:56;;;;;;;15.32;4.60;;;8.50;91.20;;;;;;5041640;28;20033;-77
2021/04/09 09:05:24;;;;;;;11.32;3.45;;;8.50;90.60;;;;;;5046043;28;20045;-76
2021/04/09 09:07:49;;;;;;;17.80;4.25;;;8.60;91.50;;;;;;5041884;28;20045;-77
2021/04/09 09:10:30;;;;;;;12.60;3.78;;;8.70;90.80;;;;;;5038742;28;20098;-77
2021/04/09 09:13:08;;;;;;;14.13;3.22;;;8.70;90.80;;;;;;5042635;28;20114;-77
2021/04/09 09:15:43;;;;;;;17.58;3.60;;;8.80;90.80;;;;;;5045905;28;20116;-78
2021/04/09 09:18:24;;;;;;;13.32;3.55;;;8.90;90.70;;;;;;5040163;28;20044;-77
2021/04/09 09:21:18;;;;;;;17.05;3.30;;;8.90;90.20;;;;;;5042352;28;20036;-77
2021/04/09 09:23:57;;;;;;;12.98;3.60;;;9.00;90.40;;;;;;5042636;28;20054;-77
2021/04/09 09:26:29;;;;;;;13.68;3.75;;;9.00;90.40;;;;;;5045122;28;20511;-78
2021/04/09 09:29:24;;;;;;;14.20;3.20;;;9.00;90.60;;;;;;5044528;28;20489;-77
2021/04/09 09:31:56;;;;;;;18.70;3.97;;;9.00;90.40;;;;;;5021981;28;20041;-78
2021/04/09 09:34:22;;;;;;;17.48;4.40;;;8.90;90.60;;;;;;5042114;28;20037;-78
2021/04/09 09:37:01;;;;;;;16.38;3.70;;;8.80;88.90;;;;;;5036735;28;20116;-77
2021/04/09 09:39:52;;;;;;;12.45;3.22;;;8.70;89.70;;;;;;5027244;28;20032;-77
2021/04/09 09:42:21;;;;;;;13.82;4.82;;;8.70;90.30;;;;;;5034786;28;20029;-78
2021/04/09 09:44:51;;;;;;;18.27;4.28;;;8.60;90.60;;;;;;5036542;28;20439;-77
2021/04/09 09:47:26;;;;;;;11.80;3.75;;;8.60;90.70;;;;;;5046192;28;20040;-78
2021/04/09 09:50:08;;;;;;;13.13;4.15;;;8.60;90.60;;;;;;5033497;28;20550;-78
2021/04/09 09:52:56;;;;;;;10.00;3.85;;;8.60;90.80;;;;;;5047468;28;20120;-78
2021/04/09 09:55:37;;;;;;;13.82;3.95;;;8.50;90.50;;;;;;5036117;28;20045;-78
2021/04/09 09:58:09;;;;;;;13.68;3.75;;;8.50;91.00;;;;;;5038089;28;20037;-77
2021/04/09 10:00:43;;;;;;;16.33;3.55;;;8.50;90.80;;;;;;5043800;28;20095;-78
2021/04/09 10:03:21;;;;;;;15.48;3.92;;;8.60;91.10;;;;;;5027107;28;20493;-77
2021/04/09 10:05:57;;;;;;;16.00;3.45;;;8.60;90.60;;;;;;5025070;28;20044;-78
2021/04/09 10:08:25;;;;;;;11.50;4.05;;;8.50;90.70;;;;;;5036286;28;20037;-78
2021/04/09 10:11:00;;;;;;;13.07;3.63;;;8.50;90.80;;;;;;5034280;28;20056;-78
2021/04/09 10:13:27;;;;;;;15.93;3.38;;;8.50;90.80;;;;;;5030092;28;20986;-78
2021/04/09 10:16:04;;;;;;;17.23;4.20;;;8.50;90.80;;;;;;5028623;28;20039;-77
2021/04/09 10:18:30;;;;;;;18.52;3.90;;;8.50;91.00;;;;;;5048440;28;20040;-77
2021/04/09 10:21:16;;;;;;;9.70;3.28;;;8.40;90.80;;;;;;5044918;28;20041;-77
2021/04/09 10:23:43;;;;;;;17.70;4.13;;;8.40;90.80;;;;;;5031254;28;20045;-78
2021/04/09 10:26:10;;;;;;;11.07;3.40;;;8.50;91.00;;;;;;5040259;28;20502;-78
2021/04/09 10:28:37;;;;;;;18.35;4.20;;;8.50;90.70;;;;;;5047371;28;20136;-77
2021/04/09 10:31:17;;;;;;;17.15;4.97;;;8.50;90.70;;;;;;5030084;28;20067;-77
2021/04/09 10:33:51;;;;;;;16.60;3.22;;;8.50;90.40;;;;;;5013951;28;20092;-78
2021/04/09 10:36:24;;;;;;;19.77;4.45;;;8.40;90.80;;;;;;5031753;28;20029;-78
2021/04/09 10:38:55;;;;;;;15.32;3.78;;;8.50;90.70;;;;;;5029505;28;20108;-78
2021/04/09 10:41:28;;;;;;;13.27;3.95;;;8.50;90.70;;;;;;5027772;28;20033;-78
2021/04/09 10:44:05;;;;;;;17.27;5.65;;;8.50;90.90;;;;;;5045574;28;20497;-78
2021/04/09 10:46:33;;;;;;;10.32;3.55;;;8.60;91.00;;;;;;5047939;28;20052;-78
2021/04/09 10:49:10;;;;;;;15.02;3.95;;;8.70;90.70;;;;;;5014828;28;20124;-77
2021/04/09 10:51:50;;;;;;;15.07;3.80;;;8.70;90.60;;;;;;5042848;28;20048;-78
2021/04/09 10:54:20;;;;;;;15.73;3.60;;;8.70;90.50;;;;;;5045810;28;20033;-77
2021/04/09 10:57:02;;;;;;;15.73;3.67;;;8.70;90.40;;;;;;5046554;28;20115;-78
2021/04/09 10:59:34;;;;;;;11.18;3.22;;;8.80;90.30;;;;;;5040646;28;20033;-77
2021/04/09 11:02:01;;;;;;;15.40;3.95;;;8.80;90.30;;;;;;5054817;28;20037;-78
2021/04/09 11:04:30;;;;;;;13.15;3.42;;;8.90;90.30;;;;;;5043220;28;20667;-77
2021/04/09 11:06:58;;;;;;;13.63;3.28;;;8.90;90.20;;;;;;5038754;28;20075;-77
2021/04/09 11:09:42;;;;;;;12.02;3.58;;;8.90;90.20;;;;;;5038258;28;20036;-77
2021/04/09 11:12:21;;;;;;;16.20;3.70;;;9.00;89.60;;;;;;5045381;28;20032;-78
2021/04/09 11:14:48;;;;;;;15.73;3.28;;;9.10;90.10;;;;;;5043670;28;20040;-77
2021/04/09 11:17:25;;;;;;;14.13;4.03;;;9.10;90.10;;;;;;5025204;28;20554;-78
2021/04/09 11:19:55;;;;;;;9.93;3.42;;;9.20;89.90;;;;;;5027644;28;20119;-78
2021/04/09 11:22:22;;;;;;;11.65;3.53;;;9.10;89.40;;;;;;5034433;28;20561;-78
2021/04/09 11:25:09;;;;;;;13.13;3.47;;;9.10;88.80;;;;;;5034477;28;20037;-78
2021/04/09 11:27:41;;;;;;;15.13;3.50;;;9.00;88.70;;;;;;5063296;28;20123;-78
2021/04/09 11:30:13;;;;;;;17.23;3.50;;;8.90;88.60;;;;;;5026552;28;20126;-78
2021/04/09 11:32:47;;;;;;;12.30;3.45;;;8.90;87.60;;;;;;5039289;28;20052;-79
2021/04/09 11:35:13;;;;;;;15.70;3.53;;;8.90;89.00;;;;;;5013629;28;20127;-79
2021/04/09 11:37:53;;;;;;;13.55;4.15;;;8.90;89.20;;;;;;5047732;28;20033;-81
2021/04/09 11:40:33;;;;;;;12.93;3.78;;;9.00;89.40;;;;;;5029637;28;20033;-81
2021/04/09 11:42:59;;;;;;;13.45;4.40;;;9.00;88.70;;;;;;5047959;28;20045;-81
2021/04/09 11:45:39;;;;;;;15.68;3.85;;;9.10;89.20;;;;;;5034302;28;20041;-81
2021/04/09 11:48:22;;;;;;;17.52;3.92;;;9.00;88.50;;;;;;5041391;28;20103;-81
2021/04/09 11:50:48;;;;;;;15.15;3.00;;;8.90;87.50;;;;;;5035672;28;20029;-80
2021/04/09 11:53:14;;;;;;;11.60;3.50;;;8.90;88.80;;;;;;5025307;28;20036;-80
2021/04/09 11:55:41;;;;;;;19.75;3.70;;;8.80;88.90;;;;;;5027668;28;20577;-81
2021/04/09 11:58:43;;;;;;;16.17;3.38;;;8.70;89.40;;;;;;5030643;28;20037;-81
2021/04/09 12:01:08;;;;;;;15.63;3.92;;;8.60;89.80;;;;;;5007152;28;20531;-81
2021/04/09 12:03:41;;;;;;;17.73;3.78;;;8.60;90.20;;;;;;5011605;28;20071;-80
2021/04/09 12:06:18;;;;;;;14.07;3.40;;;8.60;89.50;;;;;;5047294;28;20040;-80
2021/04/09 12:08:45;;;;;;;15.75;4.53;;;8.60;90.20;;;;;;5026508;28;20052;-80
2021/04/09 12:11:12;;;;;;;13.95;3.05;;;8.60;90.10;;;;;;5039910;28;20041;-80
2021/04/09 12:13:44;;;;;;;19.35;5.53;;;8.70;90.10;;;;;;5045020;28;20168;-80
2021/04/09 12:16:10;;;;;;;18.15;4.03;;;8.70;90.20;;;;;;5033277;28;20029;-81
2021/04/09 12:18:36;;;;;;;21.25;4.57;;;8.70;90.30;;;;;;5030588;28;20087;-81
2021/04/09 12:21:03;;;;;;;15.63;4.32;;;8.70;90.40;;;;;;5031512;28;20125;-81
2021/04/09 12:23:28;;;;;;;21.52;4.10;;;8.60;90.40;;;;;;5028196;28;20069;-81
2021/04/09 12:25:56;;;;;;;20.35;4.25;;;8.60;90.50;;;;;;5038055;28;20483;-81
2021/04/09 12:28:22;;;;;;;18.50;3.72;;;8.50;89.90;;;;;;5043706;28;20444;-81
2021/04/09 12:30:47;;;;;;;16.85;4.25;;;8.40;90.30;;;;;;5036358;28;20067;-81
2021/04/09 12:33:13;;;;;;;15.88;3.22;;;8.40;90.60;;;;;;5062280;28;20504;-81
2021/04/09 12:35:39;;;;;;;16.83;3.22;;;8.40;90.70;;;;;;5028555;28;20041;-81
2021/04/09 12:38:05;;;;;;;21.13;2.97;;;8.30;90.50;;;;;;5045269;28;20033;-81
2021/04/09 12:40:30;;;;;;;26.52;4.03;;;8.20;90.20;;;;;;5007226;28;20060;-81
2021/04/09 12:42:56;;;;;;;14.48;2.42;;;8.10;90.20;;;;;;5025472;28;20045;-81
2021/04/09 12:45:22;;;;;;;19.30;2.35;;;8.00;90.00;;;;;;5042862;28;20033;-81
2021/04/09 12:47:48;;;;;;;12.93;2.00;;;8.00;89.80;;;;;;5059153;28;20037;-81
2021/04/09 12:50:14;;;;;;;18.15;3.22;;;8.00;89.70;;;;;;5033695;28;20041;-81
2021/04/09 12:52:39;;;;;;;13.43;2.22;;;7.90;88.60;;;;;;5044849;28;20052;-81
2021/04/09 12:55:06;;;;;;;13.05;2.42;;;7.90;89.20;;;;;;5012460;28;20758;-81
2021/04/09 12:57:32;;;;;;;13.35;2.17;;;7.90;88.80;;;;;;5033650;28;20115;-81